sensor_id;sensor_type;location;lat;lon;timestamp;P1;durP1;ratioP1;P2;durP2;ratioP2
73113;SDS011;61301;51.956;5.876;2022-12-07T00:03:38;4.30;;;3.30;;
73113;SDS011;61301;51.956;5.876;2022-12-07T00:06:05;2.47;;;2.00;;
73113;SDS011;61301;51.956;5.876;2022-12-07T00:08:33;3.28;;;2.45;;
73113;SDS011;61301;51.956;5.876;2022-12-07T00:13:34;5.93;;;5.25;;
73113;SDS011;61301;51.956;5.876;2022-12-07T00:16:01;5.38;;;4.65;;
73113;SDS011;61301;51.956;5.876;2022-12-07T00:18:29;4.65;;;3.58;;
73113;SDS011;61301;51.956;5.876;2022-12-07T00:21:01;3.67;;;2.67;;
73113;SDS011;61301;51.956;5.876;2022-12-07T00:23:38;6.95;;;5.15;;
73113;SDS011;61301;51.956;5.876;2022-12-07T00:28:38;10.50;;;6.27;;
73113;SDS011;61301;51.956;5.876;2022-12-07T00:31:05;5.13;;;3.40;;
73113;SDS011;61301;51.956;5.876;2022-12-07T00:33:33;6.88;;;4.65;;
73113;SDS011;61301;51.956;5.876;2022-12-07T00:36:00;9.73;;;6.60;;
73113;SDS011;61301;51.956;5.876;2022-12-07T00:38:29;9.48;;;7.30;;
73113;SDS011;61301;51.956;5.876;2022-12-07T00:40:57;7.03;;;5.97;;
73113;SDS011;61301;51.956;5.876;2022-12-07T00:43:25;9.48;;;4.30;;
73113;SDS011;61301;51.956;5.876;2022-12-07T00:45:52;4.13;;;3.15;;
73113;SDS011;61301;51.956;5.876;2022-12-07T00:48:18;4.65;;;2.95;;
73113;SDS011;61301;51.956;5.876;2022-12-07T00:50:45;7.43;;;5.53;;
73113;SDS011;61301;51.956;5.876;2022-12-07T00:53:11;5.97;;;4.97;;
73113;SDS011;61301;51.956;5.876;2022-12-07T00:55:37;10.00;;;5.63;;
73113;SDS011;61301;51.956;5.876;2022-12-07T00:58:03;4.07;;;3.10;;
73113;SDS011;61301;51.956;5.876;2022-12-07T01:00:30;2.70;;;2.25;;
73113;SDS011;61301;51.956;5.876;2022-12-07T01:02:56;4.00;;;3.55;;
73113;SDS011;61301;51.956;5.876;2022-12-07T01:05:22;7.70;;;6.00;;
73113;SDS011;61301;51.956;5.876;2022-12-07T01:07:48;6.95;;;3.55;;
73113;SDS011;61301;51.956;5.876;2022-12-07T01:10:14;6.90;;;5.70;;
73113;SDS011;61301;51.956;5.876;2022-12-07T01:12:40;4.72;;;3.65;;
73113;SDS011;61301;51.956;5.876;2022-12-07T01:15:07;3.45;;;2.33;;
73113;SDS011;61301;51.956;5.876;2022-12-07T01:17:33;5.90;;;3.20;;
73113;SDS011;61301;51.956;5.876;2022-12-07T01:20:00;4.88;;;3.70;;
73113;SDS011;61301;51.956;5.876;2022-12-07T01:22:26;7.85;;;5.32;;
73113;SDS011;61301;51.956;5.876;2022-12-07T01:24:52;7.32;;;4.43;;
73113;SDS011;61301;51.956;5.876;2022-12-07T01:27:18;7.25;;;4.72;;
73113;SDS011;61301;51.956;5.876;2022-12-07T01:29:44;6.82;;;5.40;;
73113;SDS011;61301;51.956;5.876;2022-12-07T01:32:10;5.35;;;3.70;;
73113;SDS011;61301;51.956;5.876;2022-12-07T01:34:36;5.10;;;4.10;;
73113;SDS011;61301;51.956;5.876;2022-12-07T01:37:02;8.90;;;4.80;;
73113;SDS011;61301;51.956;5.876;2022-12-07T01:39:28;6.80;;;5.28;;
73113;SDS011;61301;51.956;5.876;2022-12-07T01:41:55;7.03;;;6.05;;
73113;SDS011;61301;51.956;5.876;2022-12-07T01:44:25;5.72;;;5.10;;
73113;SDS011;61301;51.956;5.876;2022-12-07T01:46:52;3.92;;;3.40;;
73113;SDS011;61301;51.956;5.876;2022-12-07T01:49:23;7.47;;;5.53;;
73113;SDS011;61301;51.956;5.876;2022-12-07T01:51:58;5.95;;;4.07;;
73113;SDS011;61301;51.956;5.876;2022-12-07T01:54:32;8.18;;;5.60;;
73113;SDS011;61301;51.956;5.876;2022-12-07T01:56:58;4.88;;;3.65;;
73113;SDS011;61301;51.956;5.876;2022-12-07T01:59:25;4.18;;;2.85;;
73113;SDS011;61301;51.956;5.876;2022-12-07T02:01:52;5.85;;;4.07;;
73113;SDS011;61301;51.956;5.876;2022-12-07T02:04:19;6.30;;;5.05;;
73113;SDS011;61301;51.956;5.876;2022-12-07T02:06:48;10.18;;;5.78;;
73113;SDS011;61301;51.956;5.876;2022-12-07T02:09:14;4.22;;;3.08;;
73113;SDS011;61301;51.956;5.876;2022-12-07T02:11:40;5.75;;;5.20;;
73113;SDS011;61301;51.956;5.876;2022-12-07T02:14:06;6.97;;;4.93;;
73113;SDS011;61301;51.956;5.876;2022-12-07T02:28:31;7.43;;;4.60;;
73113;SDS011;61301;51.956;5.876;2022-12-07T02:31:03;5.65;;;4.50;;
73113;SDS011;61301;51.956;5.876;2022-12-07T02:33:46;5.57;;;4.18;;
73113;SDS011;61301;51.956;5.876;2022-12-07T02:36:32;6.97;;;3.33;;
73113;SDS011;61301;51.956;5.876;2022-12-07T02:41:44;5.40;;;4.53;;
73113;SDS011;61301;51.956;5.876;2022-12-07T02:44:14;9.10;;;4.88;;
73113;SDS011;61301;51.956;5.876;2022-12-07T02:46:44;7.55;;;4.10;;
73113;SDS011;61301;51.956;5.876;2022-12-07T02:49:16;5.20;;;2.75;;
73113;SDS011;61301;51.956;5.876;2022-12-07T02:51:43;6.05;;;3.97;;
73113;SDS011;61301;51.956;5.876;2022-12-07T02:54:11;5.72;;;2.90;;
73113;SDS011;61301;51.956;5.876;2022-12-07T03:11:14;8.70;;;4.38;;
73113;SDS011;61301;51.956;5.876;2022-12-07T03:16:43;6.25;;;4.47;;
73113;SDS011;61301;51.956;5.876;2022-12-07T03:19:19;7.70;;;4.70;;
73113;SDS011;61301;51.956;5.876;2022-12-07T03:21:53;8.35;;;5.35;;
73113;SDS011;61301;51.956;5.876;2022-12-07T03:24:29;5.47;;;3.88;;
73113;SDS011;61301;51.956;5.876;2022-12-07T03:27:15;8.07;;;3.58;;
73113;SDS011;61301;51.956;5.876;2022-12-07T03:32:19;4.22;;;2.00;;
73113;SDS011;61301;51.956;5.876;2022-12-07T03:34:56;2.38;;;1.50;;
73113;SDS011;61301;51.956;5.876;2022-12-07T03:37:34;2.63;;;1.55;;
73113;SDS011;61301;51.956;5.876;2022-12-07T03:42:38;6.35;;;3.13;;
73113;SDS011;61301;51.956;5.876;2022-12-07T03:45:05;9.70;;;2.85;;
73113;SDS011;61301;51.956;5.876;2022-12-07T03:47:33;5.03;;;3.70;;
73113;SDS011;61301;51.956;5.876;2022-12-07T03:50:10;6.10;;;2.97;;
73113;SDS011;61301;51.956;5.876;2022-12-07T03:52:43;6.35;;;2.47;;
73113;SDS011;61301;51.956;5.876;2022-12-07T03:55:29;4.97;;;3.25;;
73113;SDS011;61301;51.956;5.876;2022-12-07T03:57:59;6.75;;;2.72;;
73113;SDS011;61301;51.956;5.876;2022-12-07T04:00:28;6.85;;;3.92;;
73113;SDS011;61301;51.956;5.876;2022-12-07T04:02:55;7.47;;;3.72;;
73113;SDS011;61301;51.956;5.876;2022-12-07T04:05:21;8.10;;;3.58;;
73113;SDS011;61301;51.956;5.876;2022-12-07T04:07:47;8.15;;;3.55;;
73113;SDS011;61301;51.956;5.876;2022-12-07T04:10:13;6.90;;;2.75;;
73113;SDS011;61301;51.956;5.876;2022-12-07T04:12:39;4.20;;;2.47;;
73113;SDS011;61301;51.956;5.876;2022-12-07T04:15:06;6.57;;;3.45;;
73113;SDS011;61301;51.956;5.876;2022-12-07T04:17:32;11.98;;;4.03;;
73113;SDS011;61301;51.956;5.876;2022-12-07T04:19:58;6.82;;;3.50;;
73113;SDS011;61301;51.956;5.876;2022-12-07T04:22:24;6.75;;;4.40;;
73113;SDS011;61301;51.956;5.876;2022-12-07T04:24:50;5.25;;;2.92;;
73113;SDS011;61301;51.956;5.876;2022-12-07T04:27:16;5.85;;;2.85;;
73113;SDS011;61301;51.956;5.876;2022-12-07T04:29:42;3.00;;;1.77;;
73113;SDS011;61301;51.956;5.876;2022-12-07T04:32:08;4.68;;;2.42;;
73113;SDS011;61301;51.956;5.876;2022-12-07T04:34:34;3.88;;;2.33;;
73113;SDS011;61301;51.956;5.876;2022-12-07T04:37:00;2.55;;;1.75;;
73113;SDS011;61301;51.956;5.876;2022-12-07T04:39:30;3.22;;;1.35;;
73113;SDS011;61301;51.956;5.876;2022-12-07T04:41:57;6.72;;;2.42;;
73113;SDS011;61301;51.956;5.876;2022-12-07T04:44:24;4.80;;;1.95;;
73113;SDS011;61301;51.956;5.876;2022-12-07T04:46:51;2.30;;;1.60;;
73113;SDS011;61301;51.956;5.876;2022-12-07T04:49:18;5.90;;;2.90;;
73113;SDS011;61301;51.956;5.876;2022-12-07T04:51:45;6.53;;;3.17;;
73113;SDS011;61301;51.956;5.876;2022-12-07T04:54:13;9.02;;;2.75;;
73113;SDS011;61301;51.956;5.876;2022-12-07T04:56:39;6.47;;;2.97;;
73113;SDS011;61301;51.956;5.876;2022-12-07T04:59:05;7.82;;;2.83;;
73113;SDS011;61301;51.956;5.876;2022-12-07T05:01:32;8.35;;;2.88;;
73113;SDS011;61301;51.956;5.876;2022-12-07T05:03:59;4.78;;;2.25;;
73113;SDS011;61301;51.956;5.876;2022-12-07T05:06:25;5.10;;;3.00;;
73113;SDS011;61301;51.956;5.876;2022-12-07T05:08:51;3.05;;;2.00;;
73113;SDS011;61301;51.956;5.876;2022-12-07T05:11:18;5.43;;;3.03;;
73113;SDS011;61301;51.956;5.876;2022-12-07T05:14:03;4.25;;;2.45;;
73113;SDS011;61301;51.956;5.876;2022-12-07T05:16:34;3.55;;;1.60;;
73113;SDS011;61301;51.956;5.876;2022-12-07T05:19:01;4.55;;;1.75;;
73113;SDS011;61301;51.956;5.876;2022-12-07T05:21:27;1.20;;;0.98;;
73113;SDS011;61301;51.956;5.876;2022-12-07T05:23:53;7.32;;;2.40;;
73113;SDS011;61301;51.956;5.876;2022-12-07T05:26:18;4.03;;;2.75;;
73113;SDS011;61301;51.956;5.876;2022-12-07T05:28:44;6.15;;;3.13;;
73113;SDS011;61301;51.956;5.876;2022-12-07T05:31:11;5.10;;;2.20;;
73113;SDS011;61301;51.956;5.876;2022-12-07T05:33:37;6.43;;;2.90;;
73113;SDS011;61301;51.956;5.876;2022-12-07T05:36:04;4.68;;;2.30;;
73113;SDS011;61301;51.956;5.876;2022-12-07T05:38:32;3.72;;;1.70;;
73113;SDS011;61301;51.956;5.876;2022-12-07T05:41:02;7.75;;;3.65;;
73113;SDS011;61301;51.956;5.876;2022-12-07T05:43:29;6.72;;;2.60;;
73113;SDS011;61301;51.956;5.876;2022-12-07T05:45:56;5.75;;;1.95;;
73113;SDS011;61301;51.956;5.876;2022-12-07T05:48:22;5.72;;;2.50;;
73113;SDS011;61301;51.956;5.876;2022-12-07T05:50:49;5.50;;;2.78;;
73113;SDS011;61301;51.956;5.876;2022-12-07T05:53:15;9.20;;;3.03;;
73113;SDS011;61301;51.956;5.876;2022-12-07T05:55:42;5.00;;;2.10;;
73113;SDS011;61301;51.956;5.876;2022-12-07T05:58:08;4.75;;;2.05;;
73113;SDS011;61301;51.956;5.876;2022-12-07T06:00:55;6.68;;;2.45;;
73113;SDS011;61301;51.956;5.876;2022-12-07T06:03:22;6.65;;;1.98;;
73113;SDS011;61301;51.956;5.876;2022-12-07T06:05:48;10.15;;;2.40;;
73113;SDS011;61301;51.956;5.876;2022-12-07T06:08:14;5.85;;;2.28;;
73113;SDS011;61301;51.956;5.876;2022-12-07T06:10:40;3.55;;;1.80;;
73113;SDS011;61301;51.956;5.876;2022-12-07T06:13:07;2.63;;;1.90;;
73113;SDS011;61301;51.956;5.876;2022-12-07T06:15:37;5.38;;;2.25;;
73113;SDS011;61301;51.956;5.876;2022-12-07T06:18:03;7.65;;;2.80;;
73113;SDS011;61301;51.956;5.876;2022-12-07T06:20:29;3.40;;;1.58;;
73113;SDS011;61301;51.956;5.876;2022-12-07T06:22:55;4.25;;;1.70;;
73113;SDS011;61301;51.956;5.876;2022-12-07T06:25:21;3.70;;;2.33;;
73113;SDS011;61301;51.956;5.876;2022-12-07T06:27:47;7.47;;;2.55;;
73113;SDS011;61301;51.956;5.876;2022-12-07T06:30:13;4.90;;;2.10;;
73113;SDS011;61301;51.956;5.876;2022-12-07T06:32:39;3.00;;;1.52;;
73113;SDS011;61301;51.956;5.876;2022-12-07T06:35:05;7.70;;;2.22;;
73113;SDS011;61301;51.956;5.876;2022-12-07T06:37:31;2.55;;;1.23;;
73113;SDS011;61301;51.956;5.876;2022-12-07T06:39:57;5.78;;;3.15;;
73113;SDS011;61301;51.956;5.876;2022-12-07T06:42:23;2.90;;;1.25;;
73113;SDS011;61301;51.956;5.876;2022-12-07T06:44:49;4.30;;;1.92;;
73113;SDS011;61301;51.956;5.876;2022-12-07T06:47:15;7.32;;;2.47;;
73113;SDS011;61301;51.956;5.876;2022-12-07T06:49:41;4.53;;;2.53;;
73113;SDS011;61301;51.956;5.876;2022-12-07T06:52:07;5.15;;;1.95;;
73113;SDS011;61301;51.956;5.876;2022-12-07T06:54:33;3.03;;;1.13;;
73113;SDS011;61301;51.956;5.876;2022-12-07T06:56:59;5.38;;;1.88;;
73113;SDS011;61301;51.956;5.876;2022-12-07T06:59:25;2.85;;;1.15;;
73113;SDS011;61301;51.956;5.876;2022-12-07T07:01:51;3.83;;;1.88;;
73113;SDS011;61301;51.956;5.876;2022-12-07T07:04:17;2.97;;;1.40;;
73113;SDS011;61301;51.956;5.876;2022-12-07T07:06:43;5.15;;;1.95;;
73113;SDS011;61301;51.956;5.876;2022-12-07T07:09:09;6.78;;;2.35;;
73113;SDS011;61301;51.956;5.876;2022-12-07T07:11:35;5.50;;;1.45;;
73113;SDS011;61301;51.956;5.876;2022-12-07T07:14:01;4.47;;;1.60;;
73113;SDS011;61301;51.956;5.876;2022-12-07T07:16:28;1.85;;;0.82;;
73113;SDS011;61301;51.956;5.876;2022-12-07T07:18:56;2.80;;;1.15;;
73113;SDS011;61301;51.956;5.876;2022-12-07T07:21:22;4.07;;;1.77;;
73113;SDS011;61301;51.956;5.876;2022-12-07T07:23:48;7.28;;;1.85;;
73113;SDS011;61301;51.956;5.876;2022-12-07T07:26:14;9.23;;;2.10;;
73113;SDS011;61301;51.956;5.876;2022-12-07T07:28:40;5.05;;;1.80;;
73113;SDS011;61301;51.956;5.876;2022-12-07T07:31:06;5.47;;;2.20;;
73113;SDS011;61301;51.956;5.876;2022-12-07T07:33:32;2.72;;;1.42;;
73113;SDS011;61301;51.956;5.876;2022-12-07T07:35:58;4.45;;;1.20;;
73113;SDS011;61301;51.956;5.876;2022-12-07T07:38:24;2.08;;;0.90;;
73113;SDS011;61301;51.956;5.876;2022-12-07T07:40:50;3.75;;;1.17;;
73113;SDS011;61301;51.956;5.876;2022-12-07T07:43:16;2.33;;;1.27;;
73113;SDS011;61301;51.956;5.876;2022-12-07T07:45:42;3.15;;;1.30;;
73113;SDS011;61301;51.956;5.876;2022-12-07T07:48:09;4.85;;;1.40;;
73113;SDS011;61301;51.956;5.876;2022-12-07T07:50:35;3.60;;;1.50;;
73113;SDS011;61301;51.956;5.876;2022-12-07T07:53:01;5.00;;;1.23;;
73113;SDS011;61301;51.956;5.876;2022-12-07T07:55:27;3.35;;;1.38;;
73113;SDS011;61301;51.956;5.876;2022-12-07T07:57:53;3.83;;;1.50;;
73113;SDS011;61301;51.956;5.876;2022-12-07T08:00:19;2.63;;;1.08;;
73113;SDS011;61301;51.956;5.876;2022-12-07T08:02:46;3.80;;;1.42;;
73113;SDS011;61301;51.956;5.876;2022-12-07T08:05:12;6.00;;;2.15;;
73113;SDS011;61301;51.956;5.876;2022-12-07T08:07:39;3.97;;;1.55;;
73113;SDS011;61301;51.956;5.876;2022-12-07T08:10:05;2.58;;;0.80;;
73113;SDS011;61301;51.956;5.876;2022-12-07T08:12:35;7.80;;;1.85;;
73113;SDS011;61301;51.956;5.876;2022-12-07T08:15:01;5.18;;;1.40;;
73113;SDS011;61301;51.956;5.876;2022-12-07T08:17:28;2.60;;;1.88;;
73113;SDS011;61301;51.956;5.876;2022-12-07T09:46:22;8.05;;;1.92;;
73113;SDS011;61301;51.956;5.876;2022-12-07T09:48:48;4.75;;;1.48;;
73113;SDS011;61301;51.956;5.876;2022-12-07T09:51:22;2.65;;;1.27;;
73113;SDS011;61301;51.956;5.876;2022-12-07T09:56:16;6.03;;;1.83;;
73113;SDS011;61301;51.956;5.876;2022-12-07T09:58:43;6.22;;;1.60;;
73113;SDS011;61301;51.956;5.876;2022-12-07T10:01:17;5.05;;;1.63;;
73113;SDS011;61301;51.956;5.876;2022-12-07T10:03:48;8.02;;;1.90;;
73113;SDS011;61301;51.956;5.876;2022-12-07T10:06:17;5.80;;;2.13;;
73113;SDS011;61301;51.956;5.876;2022-12-07T10:08:43;6.75;;;2.03;;
73113;SDS011;61301;51.956;5.876;2022-12-07T10:11:10;8.00;;;2.67;;
73113;SDS011;61301;51.956;5.876;2022-12-07T10:16:04;5.28;;;2.28;;
73113;SDS011;61301;51.956;5.876;2022-12-07T10:18:38;9.20;;;2.05;;
73113;SDS011;61301;51.956;5.876;2022-12-07T10:23:34;9.80;;;2.00;;
73113;SDS011;61301;51.956;5.876;2022-12-07T10:28:47;8.40;;;2.83;;
73113;SDS011;61301;51.956;5.876;2022-12-07T10:31:18;3.53;;;1.67;;
73113;SDS011;61301;51.956;5.876;2022-12-07T10:33:53;5.85;;;3.25;;
73113;SDS011;61301;51.956;5.876;2022-12-07T10:36:34;4.80;;;1.98;;
73113;SDS011;61301;51.956;5.876;2022-12-07T10:39:03;5.13;;;1.90;;
73113;SDS011;61301;51.956;5.876;2022-12-07T10:41:52;5.25;;;1.88;;
73113;SDS011;61301;51.956;5.876;2022-12-07T10:44:22;13.30;;;2.28;;
73113;SDS011;61301;51.956;5.876;2022-12-07T10:46:59;4.85;;;1.70;;
73113;SDS011;61301;51.956;5.876;2022-12-07T11:01:13;7.45;;;1.80;;
73113;SDS011;61301;51.956;5.876;2022-12-07T11:06:39;5.60;;;1.70;;
73113;SDS011;61301;51.956;5.876;2022-12-07T11:11:59;10.23;;;1.65;;
73113;SDS011;61301;51.956;5.876;2022-12-07T11:14:56;7.80;;;1.75;;
73113;SDS011;61301;51.956;5.876;2022-12-07T11:20:56;5.03;;;1.65;;
73113;SDS011;61301;51.956;5.876;2022-12-07T11:24:04;6.35;;;1.75;;
73113;SDS011;61301;51.956;5.876;2022-12-07T11:26:52;7.28;;;2.33;;
73113;SDS011;61301;51.956;5.876;2022-12-07T11:32:35;7.38;;;2.22;;
73113;SDS011;61301;51.956;5.876;2022-12-07T11:37:48;6.18;;;2.03;;
73113;SDS011;61301;51.956;5.876;2022-12-07T11:42:52;3.78;;;1.75;;
73113;SDS011;61301;51.956;5.876;2022-12-07T11:50:32;6.88;;;2.05;;
73113;SDS011;61301;51.956;5.876;2022-12-07T11:53:03;11.38;;;2.50;;
73113;SDS011;61301;51.956;5.876;2022-12-07T11:55:45;5.20;;;1.48;;
73113;SDS011;61301;51.956;5.876;2022-12-07T12:01:11;4.97;;;1.63;;
73113;SDS011;61301;51.956;5.876;2022-12-07T12:03:45;5.80;;;1.65;;
73113;SDS011;61301;51.956;5.876;2022-12-07T12:06:31;5.13;;;1.30;;
73113;SDS011;61301;51.956;5.876;2022-12-07T12:22:45;5.10;;;1.67;;
73113;SDS011;61301;51.956;5.876;2022-12-07T12:25:20;4.45;;;1.25;;
73113;SDS011;61301;51.956;5.876;2022-12-07T12:27:49;6.93;;;1.55;;
73113;SDS011;61301;51.956;5.876;2022-12-07T12:30:29;3.08;;;1.10;;
73113;SDS011;61301;51.956;5.876;2022-12-07T12:33:27;6.30;;;2.30;;
73113;SDS011;61301;51.956;5.876;2022-12-07T12:44:03;6.72;;;2.42;;
73113;SDS011;61301;51.956;5.876;2022-12-07T12:54:58;6.00;;;1.17;;
73113;SDS011;61301;51.956;5.876;2022-12-07T12:57:27;8.50;;;1.77;;
73113;SDS011;61301;51.956;5.876;2022-12-07T13:02:31;10.68;;;1.90;;
73113;SDS011;61301;51.956;5.876;2022-12-07T13:07:54;8.30;;;2.17;;
73113;SDS011;61301;51.956;5.876;2022-12-07T13:18:40;7.30;;;2.13;;
73113;SDS011;61301;51.956;5.876;2022-12-07T13:26:09;10.05;;;3.00;;
73113;SDS011;61301;51.956;5.876;2022-12-07T13:28:49;8.43;;;3.85;;
73113;SDS011;61301;51.956;5.876;2022-12-07T13:31:34;10.80;;;4.40;;
73113;SDS011;61301;51.956;5.876;2022-12-07T13:37:12;13.07;;;4.68;;
73113;SDS011;61301;51.956;5.876;2022-12-07T13:39:47;10.63;;;3.60;;
73113;SDS011;61301;51.956;5.876;2022-12-07T13:42:19;9.35;;;2.92;;
73113;SDS011;61301;51.956;5.876;2022-12-07T13:44:53;8.23;;;3.30;;
73113;SDS011;61301;51.956;5.876;2022-12-07T13:47:29;8.43;;;2.65;;
73113;SDS011;61301;51.956;5.876;2022-12-07T13:50:00;7.45;;;2.15;;
73113;SDS011;61301;51.956;5.876;2022-12-07T13:52:27;5.65;;;1.88;;
73113;SDS011;61301;51.956;5.876;2022-12-07T13:55:05;5.38;;;1.45;;
73113;SDS011;61301;51.956;5.876;2022-12-07T13:57:39;10.27;;;4.18;;
73113;SDS011;61301;51.956;5.876;2022-12-07T14:00:13;11.88;;;4.18;;
73113;SDS011;61301;51.956;5.876;2022-12-07T14:02:59;15.45;;;4.63;;
73113;SDS011;61301;51.956;5.876;2022-12-07T14:05:30;8.77;;;2.78;;
73113;SDS011;61301;51.956;5.876;2022-12-07T14:07:59;6.93;;;2.40;;
73113;SDS011;61301;51.956;5.876;2022-12-07T14:15:53;9.35;;;1.50;;
73113;SDS011;61301;51.956;5.876;2022-12-07T14:23:44;7.88;;;1.60;;
73113;SDS011;61301;51.956;5.876;2022-12-07T14:26:15;4.55;;;1.08;;
73113;SDS011;61301;51.956;5.876;2022-12-07T14:28:44;7.97;;;1.07;;
73113;SDS011;61301;51.956;5.876;2022-12-07T14:31:12;8.82;;;1.63;;
73113;SDS011;61301;51.956;5.876;2022-12-07T14:33:42;5.47;;;1.67;;
73113;SDS011;61301;51.956;5.876;2022-12-07T14:36:09;3.42;;;1.02;;
73113;SDS011;61301;51.956;5.876;2022-12-07T14:38:37;7.28;;;1.90;;
73113;SDS011;61301;51.956;5.876;2022-12-07T14:41:03;3.60;;;1.15;;
73113;SDS011;61301;51.956;5.876;2022-12-07T14:43:50;2.28;;;1.00;;
73113;SDS011;61301;51.956;5.876;2022-12-07T14:46:16;3.85;;;0.95;;
73113;SDS011;61301;51.956;5.876;2022-12-07T14:48:42;3.83;;;1.38;;
73113;SDS011;61301;51.956;5.876;2022-12-07T14:51:08;3.28;;;0.90;;
73113;SDS011;61301;51.956;5.876;2022-12-07T14:53:39;3.40;;;0.77;;
73113;SDS011;61301;51.956;5.876;2022-12-07T14:56:11;7.28;;;1.30;;
73113;SDS011;61301;51.956;5.876;2022-12-07T14:58:37;1.70;;;0.85;;
73113;SDS011;61301;51.956;5.876;2022-12-07T15:01:04;3.33;;;1.25;;
73113;SDS011;61301;51.956;5.876;2022-12-07T15:03:30;5.88;;;1.58;;
73113;SDS011;61301;51.956;5.876;2022-12-07T15:05:56;4.45;;;1.15;;
73113;SDS011;61301;51.956;5.876;2022-12-07T15:08:22;1.88;;;0.52;;
73113;SDS011;61301;51.956;5.876;2022-12-07T15:10:48;4.95;;;1.75;;
73113;SDS011;61301;51.956;5.876;2022-12-07T15:13:14;5.75;;;1.40;;
73113;SDS011;61301;51.956;5.876;2022-12-07T15:15:58;5.57;;;1.20;;
73113;SDS011;61301;51.956;5.876;2022-12-07T15:18:25;6.05;;;0.95;;
73113;SDS011;61301;51.956;5.876;2022-12-07T15:20:51;3.50;;;0.95;;
73113;SDS011;61301;51.956;5.876;2022-12-07T15:23:17;1.92;;;0.90;;
73113;SDS011;61301;51.956;5.876;2022-12-07T15:25:43;2.75;;;0.80;;
73113;SDS011;61301;51.956;5.876;2022-12-07T15:28:10;5.40;;;1.88;;
73113;SDS011;61301;51.956;5.876;2022-12-07T15:30:37;5.28;;;2.00;;
73113;SDS011;61301;51.956;5.876;2022-12-07T15:33:04;6.40;;;1.98;;
73113;SDS011;61301;51.956;5.876;2022-12-07T15:35:30;4.40;;;2.38;;
73113;SDS011;61301;51.956;5.876;2022-12-07T15:37:55;7.18;;;2.35;;
73113;SDS011;61301;51.956;5.876;2022-12-07T15:40:21;7.47;;;2.08;;
73113;SDS011;61301;51.956;5.876;2022-12-07T15:42:47;3.80;;;1.55;;
73113;SDS011;61301;51.956;5.876;2022-12-07T15:45:13;3.25;;;1.80;;
73113;SDS011;61301;51.956;5.876;2022-12-07T15:47:40;5.05;;;2.20;;
73113;SDS011;61301;51.956;5.876;2022-12-07T15:50:08;8.07;;;2.25;;
73113;SDS011;61301;51.956;5.876;2022-12-07T15:52:36;6.68;;;2.00;;
73113;SDS011;61301;51.956;5.876;2022-12-07T15:55:03;6.50;;;2.67;;
73113;SDS011;61301;51.956;5.876;2022-12-07T15:57:29;7.75;;;2.30;;
73113;SDS011;61301;51.956;5.876;2022-12-07T15:59:56;7.15;;;2.30;;
73113;SDS011;61301;51.956;5.876;2022-12-07T16:02:22;7.80;;;2.65;;
73113;SDS011;61301;51.956;5.876;2022-12-07T16:04:49;6.28;;;2.03;;
73113;SDS011;61301;51.956;5.876;2022-12-07T16:07:16;3.42;;;1.55;;
73113;SDS011;61301;51.956;5.876;2022-12-07T16:09:43;7.30;;;1.50;;
73113;SDS011;61301;51.956;5.876;2022-12-07T16:12:10;4.68;;;1.65;;
73113;SDS011;61301;51.956;5.876;2022-12-07T16:14:37;8.23;;;1.88;;
73113;SDS011;61301;51.956;5.876;2022-12-07T16:17:04;6.88;;;2.05;;
73113;SDS011;61301;51.956;5.876;2022-12-07T16:19:31;3.65;;;1.10;;
73113;SDS011;61301;51.956;5.876;2022-12-07T16:21:58;4.72;;;1.35;;
73113;SDS011;61301;51.956;5.876;2022-12-07T16:24:24;5.60;;;1.65;;
73113;SDS011;61301;51.956;5.876;2022-12-07T16:26:51;3.67;;;1.70;;
73113;SDS011;61301;51.956;5.876;2022-12-07T16:29:18;2.95;;;1.30;;
73113;SDS011;61301;51.956;5.876;2022-12-07T16:31:45;4.90;;;1.75;;
73113;SDS011;61301;51.956;5.876;2022-12-07T16:34:12;2.13;;;0.98;;
73113;SDS011;61301;51.956;5.876;2022-12-07T16:36:38;3.63;;;1.70;;
73113;SDS011;61301;51.956;5.876;2022-12-07T16:39:05;3.45;;;1.00;;
73113;SDS011;61301;51.956;5.876;2022-12-07T16:41:31;2.58;;;1.20;;
73113;SDS011;61301;51.956;5.876;2022-12-07T16:44:00;3.83;;;1.92;;
73113;SDS011;61301;51.956;5.876;2022-12-07T16:46:28;3.15;;;1.13;;
73113;SDS011;61301;51.956;5.876;2022-12-07T16:48:54;2.72;;;0.90;;
73113;SDS011;61301;51.956;5.876;2022-12-07T16:51:21;1.45;;;1.00;;
73113;SDS011;61301;51.956;5.876;2022-12-07T16:53:46;3.75;;;1.20;;
73113;SDS011;61301;51.956;5.876;2022-12-07T16:56:13;4.72;;;1.42;;
73113;SDS011;61301;51.956;5.876;2022-12-07T16:58:41;2.22;;;1.10;;
73113;SDS011;61301;51.956;5.876;2022-12-07T17:01:11;3.22;;;1.25;;
73113;SDS011;61301;51.956;5.876;2022-12-07T17:03:39;4.72;;;1.50;;
73113;SDS011;61301;51.956;5.876;2022-12-07T17:06:12;4.32;;;2.13;;
73113;SDS011;61301;51.956;5.876;2022-12-07T17:08:43;4.72;;;2.10;;
73113;SDS011;61301;51.956;5.876;2022-12-07T17:11:10;4.53;;;1.45;;
73113;SDS011;61301;51.956;5.876;2022-12-07T17:13:43;4.25;;;2.20;;
73113;SDS011;61301;51.956;5.876;2022-12-07T17:16:28;7.97;;;2.30;;
73113;SDS011;61301;51.956;5.876;2022-12-07T17:18:55;3.58;;;2.10;;
73113;SDS011;61301;51.956;5.876;2022-12-07T17:21:21;5.20;;;2.13;;
73113;SDS011;61301;51.956;5.876;2022-12-07T17:23:48;4.43;;;1.98;;
73113;SDS011;61301;51.956;5.876;2022-12-07T17:26:18;3.72;;;1.85;;
73113;SDS011;61301;51.956;5.876;2022-12-07T17:28:46;3.83;;;1.90;;
73113;SDS011;61301;51.956;5.876;2022-12-07T17:31:13;3.33;;;1.40;;
73113;SDS011;61301;51.956;5.876;2022-12-07T17:33:41;3.60;;;1.88;;
73113;SDS011;61301;51.956;5.876;2022-12-07T17:36:14;5.80;;;2.55;;
73113;SDS011;61301;51.956;5.876;2022-12-07T17:38:42;5.72;;;2.15;;
73113;SDS011;61301;51.956;5.876;2022-12-07T17:41:12;3.03;;;1.95;;
73113;SDS011;61301;51.956;5.876;2022-12-07T17:44:17;5.22;;;1.95;;
73113;SDS011;61301;51.956;5.876;2022-12-07T17:46:46;6.30;;;2.50;;
73113;SDS011;61301;51.956;5.876;2022-12-07T17:49:13;6.53;;;2.60;;
73113;SDS011;61301;51.956;5.876;2022-12-07T17:51:40;5.22;;;2.55;;
73113;SDS011;61301;51.956;5.876;2022-12-07T17:54:25;7.13;;;2.63;;
73113;SDS011;61301;51.956;5.876;2022-12-07T17:56:51;4.30;;;2.60;;
73113;SDS011;61301;51.956;5.876;2022-12-07T17:59:17;6.35;;;3.03;;
73113;SDS011;61301;51.956;5.876;2022-12-07T18:01:43;3.72;;;2.60;;
73113;SDS011;61301;51.956;5.876;2022-12-07T18:04:10;5.07;;;2.72;;
73113;SDS011;61301;51.956;5.876;2022-12-07T18:06:36;5.25;;;2.63;;
73113;SDS011;61301;51.956;5.876;2022-12-07T18:09:03;3.78;;;1.65;;
73113;SDS011;61301;51.956;5.876;2022-12-07T18:11:30;7.00;;;3.13;;
73113;SDS011;61301;51.956;5.876;2022-12-07T18:13:57;2.10;;;1.08;;
73113;SDS011;61301;51.956;5.876;2022-12-07T18:16:24;9.13;;;3.53;;
73113;SDS011;61301;51.956;5.876;2022-12-07T18:18:52;6.72;;;2.88;;
73113;SDS011;61301;51.956;5.876;2022-12-07T18:21:20;5.15;;;2.17;;
73113;SDS011;61301;51.956;5.876;2022-12-07T18:23:48;3.33;;;2.08;;
73113;SDS011;61301;51.956;5.876;2022-12-07T18:26:16;5.00;;;2.45;;
73113;SDS011;61301;51.956;5.876;2022-12-07T18:28:43;6.38;;;2.75;;
73113;SDS011;61301;51.956;5.876;2022-12-07T18:31:09;8.57;;;3.20;;
73113;SDS011;61301;51.956;5.876;2022-12-07T18:33:37;9.40;;;3.17;;
73113;SDS011;61301;51.956;5.876;2022-12-07T18:36:04;5.85;;;3.22;;
73113;SDS011;61301;51.956;5.876;2022-12-07T18:38:30;7.63;;;3.13;;
73113;SDS011;61301;51.956;5.876;2022-12-07T18:40:56;7.75;;;3.15;;
73113;SDS011;61301;51.956;5.876;2022-12-07T18:43:23;5.57;;;2.92;;
73113;SDS011;61301;51.956;5.876;2022-12-07T18:45:52;4.82;;;2.67;;
73113;SDS011;61301;51.956;5.876;2022-12-07T18:48:18;5.63;;;3.00;;
73113;SDS011;61301;51.956;5.876;2022-12-07T18:50:46;7.13;;;3.15;;
73113;SDS011;61301;51.956;5.876;2022-12-07T18:53:23;5.97;;;1.90;;
73113;SDS011;61301;51.956;5.876;2022-12-07T18:55:49;5.97;;;2.70;;
73113;SDS011;61301;51.956;5.876;2022-12-07T18:58:15;5.80;;;2.95;;
73113;SDS011;61301;51.956;5.876;2022-12-07T19:00:41;5.55;;;2.60;;